createdAt,value
2023-04-19T00:01:30.888Z,9.73
2023-04-19T00:03:58.195Z,7.03
2023-04-19T00:06:25.850Z,7.25
2023-04-19T00:08:52.604Z,8.43
2023-04-19T00:11:19.511Z,6.38
2023-04-19T00:13:46.197Z,5.95
2023-04-19T00:16:12.910Z,7.75
2023-04-19T00:18:39.753Z,7.28
2023-04-19T00:21:06.621Z,7.78
2023-04-19T00:23:33.346Z,7.68
2023-04-19T00:26:03.891Z,7.68
2023-04-19T00:28:31.123Z,12.13
2023-04-19T00:30:58.028Z,7.47
2023-04-19T00:33:24.860Z,3.80
2023-04-19T00:35:51.518Z,5.97
2023-04-19T00:38:18.150Z,7.05
2023-04-19T00:40:44.855Z,6.38
2023-04-19T00:43:11.658Z,6.07
2023-04-19T00:45:38.575Z,8.18
2023-04-19T00:48:05.873Z,4.68
2023-04-19T00:50:32.627Z,5.43
2023-04-19T00:52:59.811Z,5.75
2023-04-19T00:55:26.655Z,5.05
2023-04-19T00:57:53.972Z,10.35
2023-04-19T01:00:20.961Z,5.43
2023-04-19T01:02:48.182Z,6.82
2023-04-19T01:05:15.382Z,6.03
2023-04-19T01:07:43.323Z,4.95
2023-04-19T01:10:10.392Z,4.05
2023-04-19T01:12:37.139Z,5.40
2023-04-19T01:15:04.300Z,5.30
2023-04-19T01:17:33.228Z,5.03
2023-04-19T01:20:08.215Z,5.28
2023-04-19T01:22:37.642Z,5.72
2023-04-19T01:25:05.149Z,5.57
2023-04-19T01:27:31.833Z,6.18
2023-04-19T01:29:58.545Z,4.30
2023-04-19T01:32:26.533Z,6.85
2023-04-19T01:34:53.600Z,5.10
2023-04-19T01:37:20.317Z,5.35
2023-04-19T01:39:47.091Z,5.50
2023-04-19T01:42:13.759Z,5.18
2023-04-19T01:44:40.365Z,8.73
2023-04-19T01:47:07.068Z,4.32
2023-04-19T01:49:33.862Z,7.90
2023-04-19T01:52:00.885Z,6.20
2023-04-19T01:54:27.602Z,9.27
2023-04-19T01:56:54.203Z,5.38
2023-04-19T01:59:20.941Z,6.28
2023-04-19T02:01:47.791Z,7.47
2023-04-19T02:04:14.642Z,6.07
2023-04-19T02:06:41.493Z,5.75
2023-04-19T02:09:08.471Z,5.22
2023-04-19T02:11:35.255Z,5.28
2023-04-19T02:14:01.914Z,4.13
2023-04-19T02:16:28.937Z,7.15
2023-04-19T02:18:55.563Z,8.27
2023-04-19T02:21:22.306Z,7.65
2023-04-19T02:23:48.942Z,5.15
2023-04-19T02:26:15.619Z,5.07
2023-04-19T02:28:42.268Z,5.10
2023-04-19T02:31:09.068Z,7.53
2023-04-19T02:33:36.330Z,6.05
2023-04-19T02:36:03.249Z,5.82
2023-04-19T02:38:29.920Z,5.18
2023-04-19T02:40:56.721Z,6.43
2023-04-19T02:43:28.947Z,10.45
2023-04-19T02:45:55.825Z,4.18
2023-04-19T02:48:22.495Z,6.03
2023-04-19T02:50:49.211Z,5.70
2023-04-19T02:53:15.798Z,5.72
2023-04-19T02:55:42.714Z,6.78
2023-04-19T02:58:09.376Z,9.35
2023-04-19T03:00:36.096Z,8.07
2023-04-19T03:03:04.665Z,5.68
2023-04-19T03:05:32.049Z,9.10
2023-04-19T03:07:58.914Z,5.68
2023-04-19T03:10:26.163Z,5.85
2023-04-19T03:12:52.789Z,7.25
2023-04-19T03:15:20.131Z,5.45
2023-04-19T03:17:46.821Z,7.95
2023-04-19T03:20:13.667Z,4.78
2023-04-19T03:22:40.432Z,6.78
2023-04-19T03:25:08.176Z,6.95
2023-04-19T03:27:36.764Z,5.85
2023-04-19T03:30:04.056Z,5.55
2023-04-19T03:32:31.912Z,5.72
2023-04-19T03:34:58.702Z,5.05
2023-04-19T03:37:25.297Z,7.15
2023-04-19T03:39:51.934Z,5.70
2023-04-19T03:42:18.626Z,9.60
2023-04-19T03:44:45.442Z,8.48
2023-04-19T03:47:12.097Z,8.65
2023-04-19T03:49:39.129Z,7.05
2023-04-19T03:52:05.766Z,7.30
2023-04-19T03:54:32.471Z,8.55
2023-04-19T03:56:59.476Z,8.57
2023-04-19T03:59:26.346Z,7.20
2023-04-19T04:01:53.054Z,8.80
2023-04-19T04:04:20.032Z,5.90
2023-04-19T04:06:46.878Z,5.38
2023-04-19T04:09:13.505Z,6.57
2023-04-19T04:11:40.228Z,4.85
2023-04-19T04:14:07.294Z,11.98
2023-04-19T04:16:33.958Z,6.75
2023-04-19T04:19:00.805Z,7.15
2023-04-19T04:21:28.326Z,6.55
2023-04-19T04:23:54.956Z,6.05
2023-04-19T04:26:22.012Z,7.57
2023-04-19T04:28:48.776Z,8.85
2023-04-19T04:31:18.123Z,7.45
2023-04-19T04:33:45.975Z,6.57
2023-04-19T04:36:12.930Z,6.93
2023-04-19T04:38:39.825Z,7.13
2023-04-19T04:41:06.547Z,6.03
2023-04-19T04:43:34.918Z,5.45
2023-04-19T04:46:02.027Z,7.85
2023-04-19T04:48:28.700Z,8.77
2023-04-19T04:50:55.356Z,7.72
2023-04-19T04:53:22.018Z,8.43
2023-04-19T04:55:48.614Z,9.02
2023-04-19T04:58:15.459Z,8.50
2023-04-19T05:00:42.080Z,7.32
2023-04-19T05:03:08.830Z,6.82
2023-04-19T05:05:35.684Z,10.60
2023-04-19T05:08:02.446Z,6.57
2023-04-19T05:10:29.136Z,9.27
2023-04-19T05:12:55.768Z,5.15
2023-04-19T05:15:22.642Z,5.43
2023-04-19T05:17:49.360Z,6.78
2023-04-19T05:20:16.237Z,7.55
2023-04-19T05:22:42.846Z,8.15
2023-04-19T05:25:10.609Z,7.43
2023-04-19T05:27:37.401Z,9.00
2023-04-19T05:30:05.128Z,5.78
2023-04-19T05:32:31.998Z,7.45
2023-04-19T05:34:58.870Z,4.57
2023-04-19T05:37:25.531Z,5.15
2023-04-19T05:39:52.137Z,7.03
2023-04-19T05:42:18.992Z,6.88
2023-04-19T05:44:45.699Z,5.70
2023-04-19T05:47:12.427Z,8.00
2023-04-19T05:49:41.264Z,7.53
2023-04-19T05:52:08.654Z,9.23
2023-04-19T05:54:36.131Z,6.00
2023-04-19T05:57:03.366Z,8.98
2023-04-19T05:59:30.026Z,3.58
2023-04-19T06:01:56.880Z,3.88
2023-04-19T06:04:25.131Z,6.20
2023-04-19T06:06:52.033Z,5.97
2023-04-19T06:09:18.866Z,8.27
2023-04-19T06:11:50.955Z,8.27
2023-04-19T06:14:19.005Z,5.63
2023-04-19T06:16:46.015Z,9.55
2023-04-19T06:19:12.769Z,7.28
2023-04-19T06:21:39.816Z,10.02
2023-04-19T06:24:07.492Z,8.80
2023-04-19T06:26:34.368Z,8.48
2023-04-19T06:29:01.389Z,9.00
2023-04-19T06:31:28.226Z,5.95
2023-04-19T06:33:54.977Z,12.40
2023-04-19T06:36:21.634Z,7.00
2023-04-19T06:38:49.879Z,7.38
2023-04-19T06:41:16.677Z,7.65
2023-04-19T06:43:44.674Z,4.85
2023-04-19T06:46:13.823Z,7.82
2023-04-19T06:48:40.839Z,7.17
2023-04-19T06:51:07.884Z,4.05
2023-04-19T06:53:35.604Z,6.72
2023-04-19T06:56:04.485Z,7.97
2023-04-19T06:58:35.548Z,6.10
2023-04-19T07:01:04.789Z,7.13
2023-04-19T07:03:31.941Z,8.77
2023-04-19T07:05:58.797Z,9.40
2023-04-19T07:08:35.010Z,5.90
2023-04-19T07:11:06.125Z,5.78
2023-04-19T07:13:32.963Z,3.40
2023-04-19T07:15:59.699Z,3.20
2023-04-19T07:18:26.353Z,8.15
2023-04-19T07:20:53.027Z,3.75
2023-04-19T07:23:19.773Z,7.03
2023-04-19T07:25:46.530Z,5.32
2023-04-19T07:28:13.299Z,5.93
2023-04-19T07:30:39.993Z,4.97
2023-04-19T07:33:08.653Z,8.23
2023-04-19T07:35:35.863Z,4.53
2023-04-19T07:38:02.654Z,3.63
2023-04-19T07:40:29.395Z,6.65
2023-04-19T07:42:56.625Z,8.55
2023-04-19T07:45:23.626Z,4.53
2023-04-19T07:47:50.420Z,7.57
2023-04-19T07:50:17.670Z,6.55
2023-04-19T07:52:44.526Z,6.75
2023-04-19T07:55:11.290Z,6.78
2023-04-19T07:57:38.009Z,5.35
2023-04-19T08:00:05.136Z,4.35
2023-04-19T08:02:31.897Z,5.40
2023-04-19T08:04:58.693Z,11.82
2023-04-19T08:07:26.229Z,5.25
2023-04-19T08:09:52.955Z,7.13
2023-04-19T08:12:33.026Z,6.43
2023-04-19T08:15:22.650Z,7.15
2023-04-19T08:17:54.822Z,11.48
2023-04-19T08:20:21.831Z,7.53
2023-04-19T08:22:48.571Z,7.18
2023-04-19T08:25:15.468Z,10.00
2023-04-19T08:27:42.227Z,7.50
2023-04-19T08:30:10.970Z,8.20
2023-04-19T08:32:37.852Z,6.85
2023-04-19T08:35:05.694Z,10.07
2023-04-19T08:37:32.350Z,9.95
2023-04-19T08:39:58.944Z,6.40
2023-04-19T08:42:35.625Z,7.80
2023-04-19T08:47:44.855Z,7.22
2023-04-19T08:50:31.115Z,7.83
2023-04-19T08:55:32.102Z,11.45
2023-04-19T08:57:58.902Z,7.50
2023-04-19T09:00:25.827Z,5.35
2023-04-19T09:02:54.963Z,8.18
2023-04-19T09:05:22.616Z,9.07
2023-04-19T09:07:49.584Z,4.97
2023-04-19T09:10:21.742Z,8.27
2023-04-19T09:13:08.995Z,8.32
2023-04-19T09:15:41.909Z,5.40
2023-04-19T09:18:10.344Z,14.68
2023-04-19T09:20:44.456Z,7.05
2023-04-19T09:23:13.687Z,4.75
2023-04-19T09:28:19.526Z,6.20
2023-04-19T09:31:00.038Z,12.30
2023-04-19T09:33:40.026Z,10.48
2023-04-19T09:36:08.264Z,8.98
2023-04-19T09:38:50.246Z,8.63
2023-04-19T09:41:20.016Z,9.27
2023-04-19T09:44:05.608Z,6.50
2023-04-19T09:46:37.645Z,9.70
2023-04-19T09:49:37.598Z,8.45
2023-04-19T09:52:15.271Z,8.48
2023-04-19T09:54:42.253Z,7.90
2023-04-19T09:57:08.891Z,7.60
2023-04-19T09:59:35.873Z,6.70
2023-04-19T10:02:05.017Z,9.45
2023-04-19T10:04:50.052Z,5.83
2023-04-19T10:07:29.961Z,9.65
2023-04-19T10:10:11.712Z,9.95
2023-04-19T10:13:11.506Z,6.03
2023-04-19T10:15:50.037Z,6.60
2023-04-19T10:18:19.689Z,6.18
2023-04-19T10:21:00.059Z,6.93
2023-04-19T10:23:27.534Z,8.00
2023-04-19T10:25:58.608Z,11.80
2023-04-19T10:28:27.993Z,14.05
2023-04-19T10:31:03.571Z,11.07
2023-04-19T10:33:37.519Z,10.88
2023-04-19T10:36:08.468Z,9.48
2023-04-19T10:38:36.811Z,6.95
2023-04-19T10:41:04.590Z,6.95
2023-04-19T10:43:35.552Z,10.57
2023-04-19T10:46:22.987Z,6.32
2023-04-19T10:48:54.293Z,7.18
2023-04-19T10:51:23.595Z,6.75
2023-04-19T10:53:51.296Z,7.17
2023-04-19T10:56:22.632Z,10.15
2023-04-19T10:59:01.820Z,8.18
2023-04-19T11:01:45.715Z,7.15
2023-04-19T11:04:17.672Z,9.23
2023-04-19T11:06:53.436Z,9.32
2023-04-19T11:09:24.413Z,7.10
2023-04-19T11:11:58.021Z,8.93
2023-04-19T11:14:25.337Z,9.40
2023-04-19T11:16:52.093Z,8.10
2023-04-19T11:19:20.037Z,10.43
2023-04-19T11:21:47.717Z,7.63
2023-04-19T11:24:19.011Z,7.13
2023-04-19T11:26:46.171Z,8.52
2023-04-19T11:29:13.784Z,12.55
2023-04-19T11:31:43.639Z,6.15
2023-04-19T11:34:10.822Z,22.58
2023-04-19T11:36:51.369Z,9.15
2023-04-19T11:39:18.659Z,6.70
2023-04-19T11:41:47.172Z,11.07
2023-04-19T11:44:20.493Z,10.70
2023-04-19T11:47:05.115Z,12.85
2023-04-19T11:49:33.907Z,8.30
2023-04-19T11:52:05.384Z,8.57
2023-04-19T11:54:33.157Z,7.15
2023-04-19T11:57:09.422Z,6.85
2023-04-19T11:59:36.874Z,5.35
2023-04-19T12:02:10.962Z,6.75
2023-04-19T12:04:38.953Z,5.22
2023-04-19T12:07:07.031Z,10.48
2023-04-19T12:09:35.819Z,10.32
2023-04-19T12:12:03.311Z,5.93
2023-04-19T12:14:31.466Z,10.98
2023-04-19T12:17:12.208Z,10.13
2023-04-19T12:19:43.703Z,8.38
2023-04-19T12:22:14.781Z,8.93
2023-04-19T12:24:42.082Z,10.40
2023-04-19T12:27:09.452Z,5.82
2023-04-19T12:29:38.569Z,9.98
2023-04-19T12:32:05.765Z,7.82
2023-04-19T12:34:32.760Z,10.77
2023-04-19T12:36:59.463Z,8.27
2023-04-19T12:39:26.242Z,8.45
2023-04-19T12:41:52.907Z,8.00
2023-04-19T12:44:19.614Z,7.13
2023-04-19T12:46:46.414Z,6.43
2023-04-19T12:49:13.242Z,9.35
2023-04-19T12:51:40.022Z,9.50
2023-04-19T12:54:07.577Z,7.55
2023-04-19T12:56:35.223Z,7.97
2023-04-19T12:59:01.837Z,7.55
2023-04-19T13:01:28.721Z,7.03
2023-04-19T13:03:58.707Z,14.65
2023-04-19T13:06:26.267Z,7.38
2023-04-19T13:08:54.661Z,8.32
2023-04-19T13:11:23.471Z,7.60
2023-04-19T13:13:51.819Z,9.88
2023-04-19T13:16:19.068Z,6.22
2023-04-19T13:18:46.145Z,8.90
2023-04-19T13:21:13.035Z,7.43
2023-04-19T13:23:39.904Z,9.20
2023-04-19T13:26:06.885Z,6.35
2023-04-19T13:28:35.751Z,9.52
2023-04-19T13:31:04.726Z,10.77
2023-04-19T13:33:31.505Z,6.65
2023-04-19T13:35:58.168Z,6.32
2023-04-19T13:38:25.274Z,6.25
2023-04-19T13:40:52.056Z,10.88
2023-04-19T13:43:18.858Z,7.65
2023-04-19T13:45:45.941Z,8.35
2023-04-19T13:48:12.755Z,8.98
2023-04-19T13:50:39.512Z,10.65
2023-04-19T13:53:06.435Z,9.98
2023-04-19T13:55:33.722Z,12.50
2023-04-19T13:58:00.839Z,8.57
2023-04-19T14:00:27.969Z,13.13
2023-04-19T14:02:56.747Z,6.25
2023-04-19T14:05:23.859Z,8.07
2023-04-19T14:07:50.538Z,8.93
2023-04-19T14:10:17.254Z,8.43
2023-04-19T14:12:44.995Z,10.95
2023-04-19T14:15:12.213Z,8.30
2023-04-19T14:17:38.990Z,8.10
2023-04-19T14:20:07.481Z,12.05
2023-04-19T14:22:35.545Z,7.50
2023-04-19T14:25:03.900Z,8.07
2023-04-19T14:27:30.840Z,12.30
2023-04-19T14:29:57.675Z,13.95
2023-04-19T14:32:26.633Z,13.15
2023-04-19T14:34:55.136Z,12.68
2023-04-19T14:37:22.669Z,8.57
2023-04-19T14:39:49.443Z,12.38
2023-04-19T14:42:16.205Z,14.10
2023-04-19T14:44:42.951Z,10.35
2023-04-19T14:47:09.688Z,11.40
2023-04-19T14:49:36.299Z,9.68
2023-04-19T14:52:03.985Z,11.82
2023-04-19T14:54:30.884Z,10.55
2023-04-19T14:56:57.575Z,9.15
2023-04-19T14:59:24.185Z,14.65
2023-04-19T15:01:50.996Z,13.65
2023-04-19T15:04:18.044Z,12.52
2023-04-19T15:06:44.904Z,10.88
2023-04-19T15:09:11.557Z,11.90
2023-04-19T15:11:38.291Z,12.48
2023-04-19T15:14:05.043Z,10.25
2023-04-19T15:16:31.828Z,11.70
2023-04-19T15:18:58.555Z,11.93
2023-04-19T15:21:25.340Z,14.10
2023-04-19T15:23:52.353Z,10.73
2023-04-19T15:26:19.000Z,17.17
2023-04-19T15:28:45.841Z,11.82
2023-04-19T15:31:12.984Z,14.80
2023-04-19T15:33:39.769Z,14.55
2023-04-19T15:36:06.756Z,9.82
2023-04-19T15:38:33.637Z,15.63
2023-04-19T15:41:03.877Z,12.32
2023-04-19T15:45:57.240Z,11.43
2023-04-19T15:48:24.025Z,14.68
2023-04-19T15:50:50.746Z,21.52
2023-04-19T15:53:17.697Z,18.58
2023-04-19T15:55:46.643Z,13.20
2023-04-19T15:58:13.667Z,12.05
2023-04-19T16:00:40.538Z,14.15
2023-04-19T16:03:09.726Z,15.38
2023-04-19T16:05:36.922Z,12.80
2023-04-19T16:08:05.744Z,24.25
2023-04-19T16:10:32.824Z,16.23
2023-04-19T16:13:01.235Z,16.55
2023-04-19T16:15:28.690Z,15.63
2023-04-19T16:17:55.490Z,11.90
2023-04-19T16:20:22.288Z,16.77
2023-04-19T16:22:49.242Z,18.13
2023-04-19T16:25:17.221Z,10.18
2023-04-19T16:27:46.182Z,18.65
2023-04-19T16:30:14.384Z,12.35
2023-04-19T16:32:41.924Z,15.95
2023-04-19T16:35:09.413Z,16.73
2023-04-19T16:37:36.591Z,15.18
2023-04-19T16:40:08.394Z,15.40
2023-04-19T16:42:36.353Z,16.40
2023-04-19T16:45:04.101Z,13.85
2023-04-19T16:47:31.174Z,13.52
2023-04-19T16:49:58.728Z,14.35
2023-04-19T16:52:30.751Z,14.75
2023-04-19T16:54:57.407Z,14.60
2023-04-19T16:57:24.602Z,16.80
2023-04-19T16:59:51.510Z,17.00
2023-04-19T17:02:18.689Z,31.40
2023-04-19T17:04:45.819Z,19.67
2023-04-19T17:07:12.655Z,16.27
2023-04-19T17:09:39.501Z,15.93
2023-04-19T17:12:06.814Z,20.45
2023-04-19T17:14:36.288Z,18.13
2023-04-19T17:17:02.928Z,19.30
2023-04-19T17:19:29.670Z,24.65
2023-04-19T17:21:56.628Z,18.92
2023-04-19T17:24:23.429Z,21.92
2023-04-19T17:26:50.244Z,14.02
2023-04-19T17:29:17.247Z,17.58
2023-04-19T17:31:44.272Z,16.88
2023-04-19T17:34:11.251Z,13.98
2023-04-19T17:36:37.999Z,16.50
2023-04-19T17:39:06.737Z,17.70
2023-04-19T17:41:33.854Z,15.25
2023-04-19T17:44:00.764Z,17.15
2023-04-19T17:46:27.481Z,14.43
2023-04-19T17:48:55.599Z,15.40
2023-04-19T17:51:22.301Z,15.00
2023-04-19T17:53:49.031Z,12.00
2023-04-19T17:56:15.851Z,14.68
2023-04-19T17:58:42.536Z,17.38
2023-04-19T18:01:10.362Z,12.13
2023-04-19T18:03:38.177Z,17.75
2023-04-19T18:06:05.251Z,11.45
2023-04-19T18:08:31.911Z,14.60
2023-04-19T18:10:58.900Z,14.25
2023-04-19T18:13:25.756Z,14.90
2023-04-19T18:15:52.533Z,12.82
2023-04-19T18:18:19.440Z,19.02
2023-04-19T18:20:46.256Z,13.52
2023-04-19T18:23:13.148Z,19.05
2023-04-19T18:25:39.839Z,12.75
2023-04-19T18:28:06.747Z,15.00
2023-04-19T18:30:33.891Z,21.17
2023-04-19T18:33:00.642Z,15.73
2023-04-19T18:35:27.375Z,17.25
2023-04-19T18:37:54.252Z,17.85
2023-04-19T18:40:21.152Z,17.90
2023-04-19T18:42:47.983Z,16.65
2023-04-19T18:45:15.044Z,18.73
2023-04-19T18:47:41.947Z,20.52
2023-04-19T18:50:09.211Z,15.85
2023-04-19T18:52:39.042Z,15.05
2023-04-19T18:55:06.635Z,18.92
2023-04-19T18:57:35.062Z,18.65
2023-04-19T19:00:05.785Z,22.52
2023-04-19T19:02:34.553Z,17.77
2023-04-19T19:05:02.374Z,20.35
2023-04-19T19:10:01.511Z,19.73
2023-04-19T19:12:30.857Z,18.00
2023-04-19T19:14:57.483Z,17.80
2023-04-19T19:17:28.153Z,16.10
2023-04-19T19:19:55.131Z,18.98
2023-04-19T19:22:28.216Z,18.65
2023-04-19T19:24:55.625Z,17.75
2023-04-19T19:27:22.704Z,21.63
2023-04-19T19:29:49.374Z,23.30
2023-04-19T19:32:16.185Z,20.38
2023-04-19T19:34:51.856Z,24.52
2023-04-19T19:37:22.928Z,17.67
2023-04-19T19:39:49.726Z,21.67
2023-04-19T19:42:17.698Z,19.85
2023-04-19T19:44:44.674Z,20.15
2023-04-19T19:47:12.342Z,16.88
2023-04-19T19:52:08.782Z,20.60
2023-04-19T19:54:35.465Z,19.63
2023-04-19T19:59:34.909Z,20.52
2023-04-19T20:02:02.771Z,18.65
2023-04-19T20:04:29.762Z,17.77
2023-04-19T20:07:28.488Z,18.00
2023-04-19T20:09:43.797Z,18.65
2023-04-19T20:12:12.576Z,19.98
2023-04-19T20:14:39.593Z,19.33
2023-04-19T20:17:06.593Z,21.50
2023-04-19T20:19:33.574Z,22.13
2023-04-19T20:22:00.530Z,24.75
2023-04-19T20:24:31.775Z,20.92
2023-04-19T20:26:58.508Z,26.23
2023-04-19T20:29:25.266Z,24.08
2023-04-19T20:31:52.080Z,25.52
2023-04-19T20:34:18.827Z,24.35
2023-04-19T20:36:48.810Z,29.58
2023-04-19T20:39:15.836Z,22.45
2023-04-19T20:41:45.724Z,23.15
2023-04-19T20:44:12.490Z,21.45
2023-04-19T20:46:39.351Z,23.15
2023-04-19T20:49:06.062Z,21.25
2023-04-19T20:51:32.844Z,21.98
2023-04-19T20:53:59.506Z,21.80
2023-04-19T20:56:26.259Z,20.17
2023-04-19T20:58:53.242Z,24.77
2023-04-19T21:01:20.727Z,24.60
2023-04-19T21:03:49.867Z,25.65
2023-04-19T21:06:16.979Z,21.83
2023-04-19T21:08:43.619Z,22.17
2023-04-19T21:11:10.382Z,24.23
2023-04-19T21:13:37.025Z,19.88
2023-04-19T21:16:03.783Z,22.95
2023-04-19T21:18:31.059Z,22.27
2023-04-19T21:20:58.347Z,22.75
2023-04-19T21:23:25.853Z,21.98
2023-04-19T21:25:53.083Z,22.25
2023-04-19T21:28:20.354Z,22.17
2023-04-19T21:30:47.079Z,24.90
2023-04-19T21:33:13.728Z,25.33
2023-04-19T21:35:40.454Z,25.15
2023-04-19T21:38:12.403Z,25.70
2023-04-19T21:40:39.583Z,26.65
2023-04-19T21:43:06.266Z,28.42
2023-04-19T21:45:33.279Z,32.92
2023-04-19T21:48:00.471Z,29.38
2023-04-19T21:50:27.299Z,27.55
2023-04-19T21:52:54.039Z,28.20
2023-04-19T21:55:20.803Z,24.80
2023-04-19T21:57:47.494Z,26.33
2023-04-19T22:00:15.737Z,24.35
2023-04-19T22:02:43.173Z,22.27
2023-04-19T22:05:10.411Z,21.63
2023-04-19T22:07:40.226Z,21.90
2023-04-19T22:10:07.709Z,24.15
2023-04-19T22:12:36.258Z,21.83
2023-04-19T22:15:08.124Z,23.35
2023-04-19T22:17:37.873Z,24.40
2023-04-19T22:20:09.138Z,25.13
2023-04-19T22:22:35.815Z,24.75
2023-04-19T22:25:02.526Z,20.77
2023-04-19T22:27:29.190Z,21.67
2023-04-19T22:29:55.870Z,22.98
2023-04-19T22:32:22.773Z,22.77
2023-04-19T22:34:57.198Z,21.40
2023-04-19T22:37:23.813Z,20.67
2023-04-19T22:39:50.560Z,21.13
2023-04-19T22:42:17.206Z,19.58
2023-04-19T22:44:43.818Z,21.48
2023-04-19T22:47:11.867Z,18.95
2023-04-19T22:49:42.613Z,20.80
2023-04-19T22:52:09.947Z,20.60
2023-04-19T22:54:36.752Z,20.95
2023-04-19T22:57:03.661Z,18.23
2023-04-19T22:59:30.301Z,19.50
2023-04-19T23:01:57.183Z,21.38
2023-04-19T23:04:24.153Z,18.80
2023-04-19T23:06:50.955Z,16.38
2023-04-19T23:09:18.146Z,18.38
2023-04-19T23:11:46.333Z,18.30
2023-04-19T23:14:13.087Z,18.10
2023-04-19T23:16:40.480Z,15.55
2023-04-19T23:19:07.781Z,16.15
2023-04-19T23:21:34.442Z,18.63
2023-04-19T23:24:01.140Z,16.00
2023-04-19T23:26:27.878Z,16.10
2023-04-19T23:28:54.601Z,15.70
2023-04-19T23:31:21.287Z,16.33
2023-04-19T23:33:48.505Z,17.15
2023-04-19T23:36:15.483Z,19.83
2023-04-19T23:38:42.249Z,20.63
2023-04-19T23:41:14.806Z,18.98
2023-04-19T23:43:41.519Z,19.52
2023-04-19T23:46:08.319Z,20.05
2023-04-19T23:48:35.276Z,20.92
2023-04-19T23:51:02.080Z,24.23
2023-04-19T23:53:31.477Z,19.05
2023-04-19T23:55:58.076Z,22.90
2023-04-19T23:58:24.793Z,24.90
